Terminal Aerodrome Forecast
Issued by NWS

Home | Current Version | Previous Version | Text Only | Print | Product List | Glossary On
Versions: 1 2 3 4 5 6 7 8 9 10 11 12 13 14 15 16
000
FTAK31 PAJN 301700
TAFAPG
TAF
PAPG 301724Z 3018/3118 06003KT P6SM VCSH FEW005 BKN025 OVC050
      TEMPO 3018/3021 6SM BCFG SCT003 OVC035
     FM302100 06005KT P6SM SCT050 BKN100
     FM310800 VRB02KT P6SM VCFG SCT002 BKN100
      AMD LTD TO CLD VIS AND WIND 3106/3115=

USA.gov is the U.S. government's official web portal to all federal, state and local government web resources and services.